createdAt,value
2023-03-24T00:00:23.359Z,5.13
2023-03-24T00:05:54.035Z,5.83
2023-03-24T00:08:23.534Z,5.43
2023-03-24T00:10:52.613Z,5.20
2023-03-24T00:13:21.883Z,4.43
2023-03-24T00:15:51.025Z,5.00
2023-03-24T00:18:22.123Z,5.10
2023-03-24T00:20:57.672Z,5.13
2023-03-24T00:23:31.792Z,4.73
2023-03-24T00:26:02.485Z,4.60
2023-03-24T00:28:34.420Z,5.33
2023-03-24T00:31:05.611Z,5.60
2023-03-24T00:33:35.026Z,5.60
2023-03-24T00:36:06.902Z,5.33
2023-03-24T00:38:40.348Z,5.17
2023-03-24T00:41:10.573Z,5.00
2023-03-24T00:43:39.920Z,4.73
2023-03-24T00:46:13.617Z,5.37
2023-03-24T00:48:42.597Z,5.20
2023-03-24T00:51:13.350Z,4.87
2023-03-24T00:53:43.190Z,4.87
2023-03-24T00:56:14.933Z,4.93
2023-03-24T00:58:47.268Z,4.90
2023-03-24T01:01:18.425Z,4.77
2023-03-24T01:03:50.224Z,5.00
2023-03-24T01:06:22.902Z,5.03
2023-03-24T01:08:54.918Z,4.93
2023-03-24T01:11:26.532Z,5.03
2023-03-24T01:13:56.077Z,5.13
2023-03-24T01:16:30.798Z,5.13
2023-03-24T01:19:00.039Z,4.93
2023-03-24T01:21:29.145Z,5.33
2023-03-24T01:23:58.360Z,5.40
2023-03-24T01:26:27.398Z,4.77
2023-03-24T01:28:56.525Z,5.70
2023-03-24T01:31:31.417Z,5.55
2023-03-24T01:34:00.498Z,5.47
2023-03-24T01:36:29.775Z,4.97
2023-03-24T01:39:00.678Z,4.77
2023-03-24T01:41:34.478Z,5.03
2023-03-24T01:44:31.536Z,4.80
2023-03-24T01:47:05.961Z,5.70
2023-03-24T01:49:40.710Z,5.80
2023-03-24T01:52:18.343Z,5.50
2023-03-24T01:54:52.196Z,5.77
2023-03-24T01:57:26.086Z,5.87
2023-03-24T02:02:54.321Z,5.23
2023-03-24T02:05:28.535Z,5.17
2023-03-24T02:08:04.497Z,4.97
2023-03-24T02:10:36.150Z,5.30
2023-03-24T02:13:06.056Z,4.70
2023-03-24T02:15:45.048Z,4.80
2023-03-24T02:18:20.526Z,5.20
2023-03-24T02:21:33.688Z,5.17
2023-03-24T02:24:30.240Z,5.17
2023-03-24T02:27:23.211Z,4.65
2023-03-24T02:30:11.247Z,4.37
2023-03-24T02:33:19.381Z,5.20
2023-03-24T02:36:33.039Z,4.43
2023-03-24T02:39:29.280Z,5.17
2023-03-24T02:42:11.559Z,4.30
2023-03-24T02:44:48.559Z,4.70
2023-03-24T02:47:24.258Z,4.87
2023-03-24T02:50:01.394Z,4.70
2023-03-24T02:52:38.790Z,4.67
2023-03-24T02:55:17.888Z,4.20
2023-03-24T02:57:53.766Z,5.00
2023-03-24T03:00:58.710Z,4.60
2023-03-24T03:03:49.278Z,4.80
2023-03-24T03:06:25.835Z,4.23
2023-03-24T03:08:58.966Z,4.93
2023-03-24T03:11:28.134Z,4.73
2023-03-24T03:14:02.799Z,4.57
2023-03-24T03:16:40.772Z,4.73
2023-03-24T03:19:19.565Z,4.80
2023-03-24T03:21:50.974Z,4.97
2023-03-24T03:24:26.046Z,4.63
2023-03-24T03:27:07.717Z,4.80
2023-03-24T03:29:44.173Z,5.13
2023-03-24T03:35:06.324Z,4.90
2023-03-24T03:37:44.459Z,4.43
2023-03-24T03:40:22.606Z,5.03
2023-03-24T03:42:55.943Z,4.70
2023-03-24T03:45:27.125Z,4.30
2023-03-24T03:47:56.528Z,5.10
2023-03-24T03:50:29.662Z,5.60
2023-03-24T03:53:03.960Z,4.73
2023-03-24T03:55:34.962Z,4.60
2023-03-24T03:58:06.108Z,5.23
2023-03-24T04:00:50.976Z,5.20
2023-03-24T04:04:05.112Z,5.40
2023-03-24T04:07:09.037Z,4.90
2023-03-24T04:09:49.981Z,4.50
2023-03-24T04:12:33.320Z,4.60
2023-03-24T04:15:34.557Z,4.97
2023-03-24T04:18:52.441Z,4.73
2023-03-24T04:21:37.889Z,4.80
2023-03-24T04:24:26.427Z,4.67
2023-03-24T04:27:04.148Z,4.70
2023-03-24T04:29:42.184Z,5.03
2023-03-24T04:32:21.978Z,4.83
2023-03-24T04:34:55.473Z,5.03
2023-03-24T04:37:40.986Z,6.37
2023-03-24T04:40:20.520Z,4.70
2023-03-24T04:42:52.286Z,5.50
2023-03-24T04:45:25.740Z,5.60
2023-03-24T04:48:21.179Z,5.10
2023-03-24T04:51:03.554Z,5.10
2023-03-24T04:53:51.763Z,6.17
2023-03-24T04:56:35.657Z,5.77
2023-03-24T04:59:12.366Z,5.30
2023-03-24T05:01:49.550Z,6.13
2023-03-24T05:04:41.257Z,5.37
2023-03-24T05:07:18.853Z,6.07
2023-03-24T05:09:51.725Z,6.05
2023-03-24T05:12:20.756Z,6.43
2023-03-24T05:15:11.142Z,6.10
2023-03-24T05:17:40.786Z,6.90
2023-03-24T05:20:11.978Z,6.60
2023-03-24T05:22:45.526Z,7.63
2023-03-24T05:25:15.386Z,7.83
2023-03-24T05:27:47.759Z,8.57
2023-03-24T05:30:26.538Z,7.57
2023-03-24T05:33:10.158Z,8.80
2023-03-24T05:35:44.687Z,7.30
2023-03-24T05:38:14.454Z,9.80
2023-03-24T05:40:46.026Z,9.13
2023-03-24T05:43:19.343Z,9.37
2023-03-24T05:46:02.035Z,8.70
2023-03-24T05:48:35.939Z,9.87
2023-03-24T05:51:14.868Z,9.43
2023-03-24T05:53:45.217Z,10.13
2023-03-24T05:56:27.585Z,10.47
2023-03-24T05:59:11.459Z,10.10
2023-03-24T06:02:09.493Z,9.53
2023-03-24T06:04:48.562Z,10.20
2023-03-24T06:07:21.682Z,10.13
2023-03-24T06:09:52.174Z,10.37
2023-03-24T06:12:23.780Z,10.33
2023-03-24T06:14:57.170Z,10.23
2023-03-24T06:17:28.225Z,10.10
2023-03-24T06:20:05.019Z,9.87
2023-03-24T06:22:34.615Z,9.00
2023-03-24T06:25:07.027Z,10.23
2023-03-24T06:27:36.106Z,9.83
2023-03-24T06:30:08.226Z,9.33
2023-03-24T06:32:37.914Z,8.90
2023-03-24T06:35:08.534Z,9.37
2023-03-24T06:37:47.486Z,9.45
2023-03-24T06:40:19.342Z,9.37
2023-03-24T06:42:56.146Z,9.73
2023-03-24T06:45:25.286Z,9.20
2023-03-24T06:47:58.713Z,10.03
2023-03-24T06:50:32.739Z,10.03
2023-03-24T06:53:02.427Z,9.13
2023-03-24T06:55:34.605Z,9.60
2023-03-24T06:58:06.328Z,9.17
2023-03-24T07:00:46.101Z,8.93
2023-03-24T07:03:26.079Z,8.67
2023-03-24T07:06:13.051Z,8.20
2023-03-24T07:08:45.363Z,8.67
2023-03-24T07:11:23.372Z,7.50
2023-03-24T07:13:55.932Z,7.93
2023-03-24T07:16:29.534Z,7.20
2023-03-24T07:19:05.267Z,7.43
2023-03-24T07:21:39.495Z,6.77
2023-03-24T07:24:09.034Z,7.30
2023-03-24T07:26:49.465Z,6.63
2023-03-24T07:29:26.511Z,7.07
2023-03-24T07:32:17.680Z,7.07
2023-03-24T07:34:48.244Z,6.10
2023-03-24T07:37:21.572Z,6.20
2023-03-24T07:39:51.261Z,6.47
2023-03-24T07:42:20.679Z,6.43
2023-03-24T07:45:15.591Z,6.27
2023-03-24T07:47:47.790Z,6.37
2023-03-24T07:50:17.875Z,6.33
2023-03-24T07:52:50.476Z,8.13
2023-03-24T07:55:21.971Z,6.87
2023-03-24T07:57:58.762Z,6.65
2023-03-24T08:00:29.904Z,7.40
2023-03-24T08:03:14.810Z,7.80
2023-03-24T08:06:09.524Z,6.93
2023-03-24T08:08:46.056Z,6.83
2023-03-24T08:11:14.991Z,7.03
2023-03-24T08:13:44.122Z,6.77
2023-03-24T08:16:13.195Z,6.77
2023-03-24T08:18:42.254Z,7.27
2023-03-24T08:21:11.101Z,7.57
2023-03-24T08:23:40.911Z,7.63
2023-03-24T08:26:10.774Z,7.73
2023-03-24T08:28:41.513Z,7.60
2023-03-24T08:31:12.075Z,8.03
2023-03-24T08:33:42.358Z,7.20
2023-03-24T08:36:11.355Z,7.65
2023-03-24T08:38:41.205Z,7.07
2023-03-24T08:41:10.066Z,7.50
2023-03-24T08:43:39.193Z,7.90
2023-03-24T08:46:10.579Z,8.53
2023-03-24T08:48:41.470Z,8.77
2023-03-24T08:51:15.109Z,8.43
2023-03-24T08:53:44.709Z,8.07
2023-03-24T08:56:14.116Z,8.73
2023-03-24T08:58:43.179Z,7.97
2023-03-24T09:01:12.721Z,8.53
2023-03-24T09:03:42.062Z,7.90
2023-03-24T09:06:11.398Z,8.00
2023-03-24T09:08:41.093Z,8.60
2023-03-24T09:11:16.921Z,6.83
2023-03-24T09:13:46.821Z,7.13
2023-03-24T09:16:17.992Z,6.57
2023-03-24T09:18:47.247Z,6.77
2023-03-24T09:21:22.877Z,6.00
2023-03-24T09:24:01.090Z,6.20
2023-03-24T09:26:30.602Z,6.30
2023-03-24T09:29:03.791Z,6.13
2023-03-24T09:31:36.633Z,5.80
2023-03-24T09:34:08.744Z,5.83
2023-03-24T09:36:40.929Z,6.03
2023-03-24T09:39:09.837Z,5.37
2023-03-24T09:41:40.931Z,6.30
2023-03-24T09:44:21.878Z,5.53
2023-03-24T09:47:02.015Z,5.77
2023-03-24T09:49:34.459Z,5.30
2023-03-24T09:52:07.420Z,5.40
2023-03-24T09:54:47.387Z,5.53
2023-03-24T09:57:21.969Z,5.77
2023-03-24T09:59:50.887Z,5.90
2023-03-24T10:02:21.804Z,5.57
2023-03-24T10:04:51.148Z,5.90
2023-03-24T10:07:27.787Z,5.90
2023-03-24T10:09:59.466Z,5.93
2023-03-24T10:12:36.796Z,5.67
2023-03-24T10:15:17.630Z,5.93
2023-03-24T10:17:57.641Z,5.83
2023-03-24T10:20:36.022Z,5.43
2023-03-24T10:23:21.090Z,5.63
2023-03-24T10:25:57.004Z,5.37
2023-03-24T10:28:34.844Z,5.77
2023-03-24T10:31:10.382Z,5.00
2023-03-24T10:33:42.585Z,4.90
2023-03-24T10:36:14.514Z,4.83
2023-03-24T10:38:44.136Z,5.90
2023-03-24T10:41:18.618Z,5.60
2023-03-24T10:43:50.840Z,5.43
2023-03-24T10:46:22.688Z,5.63
2023-03-24T10:48:54.612Z,5.67
2023-03-24T10:51:27.816Z,5.37
2023-03-24T10:54:12.322Z,5.20
2023-03-24T10:56:43.285Z,5.07
2023-03-24T10:59:25.556Z,4.53
2023-03-24T11:02:17.524Z,5.60
2023-03-24T11:04:57.329Z,5.17
2023-03-24T11:07:34.058Z,4.70
2023-03-24T11:10:07.694Z,4.73
2023-03-24T11:12:38.464Z,4.70
2023-03-24T11:15:23.013Z,4.97
2023-03-24T11:17:57.817Z,5.27
2023-03-24T11:20:31.620Z,5.25
2023-03-24T11:25:36.398Z,5.17
2023-03-24T11:28:11.268Z,5.77
2023-03-24T11:30:47.778Z,5.63
2023-03-24T11:33:34.577Z,5.03
2023-03-24T11:36:25.507Z,5.57
2023-03-24T11:39:01.383Z,5.13
2023-03-24T11:41:30.754Z,5.17
2023-03-24T11:44:18.312Z,5.53
2023-03-24T11:46:51.123Z,5.90
2023-03-24T11:49:22.933Z,5.20
2023-03-24T11:52:01.211Z,5.73
2023-03-24T11:54:35.205Z,4.77
2023-03-24T11:57:15.250Z,5.10
2023-03-24T11:59:52.295Z,4.83
2023-03-24T12:02:33.518Z,5.10
2023-03-24T12:05:19.613Z,5.00
2023-03-24T12:08:07.967Z,4.57
2023-03-24T12:10:53.557Z,4.12
2023-03-24T12:13:35.281Z,3.80
2023-03-24T12:16:34.301Z,4.33
2023-03-24T12:19:27.159Z,3.87
2023-03-24T12:22:11.631Z,3.70
2023-03-24T12:24:58.831Z,3.70
2023-03-24T12:27:37.358Z,3.73
2023-03-24T12:30:13.831Z,4.27
2023-03-24T12:32:53.423Z,4.20
2023-03-24T12:35:52.717Z,3.90
2023-03-24T12:38:34.160Z,3.93
2023-03-24T12:41:38.080Z,4.10
2023-03-24T12:44:33.610Z,3.90
2023-03-24T12:47:17.209Z,4.23
2023-03-24T12:50:08.071Z,3.75
2023-03-24T12:55:41.050Z,3.77
2023-03-24T12:58:18.800Z,3.90
2023-03-24T13:00:58.713Z,3.90
2023-03-24T13:03:38.364Z,3.20
2023-03-24T13:06:19.104Z,3.00
2023-03-24T13:09:03.433Z,3.20
2023-03-24T13:11:43.486Z,3.13
2023-03-24T13:14:17.718Z,3.77
2023-03-24T13:16:49.924Z,3.17
2023-03-24T13:19:24.118Z,3.20
2023-03-24T13:22:06.655Z,2.63
2023-03-24T13:24:36.137Z,2.97
2023-03-24T13:27:18.147Z,3.20
2023-03-24T13:30:12.241Z,2.60
2023-03-24T13:32:45.225Z,2.85
2023-03-24T13:35:21.796Z,2.47
2023-03-24T13:37:54.431Z,2.97
2023-03-24T13:40:26.900Z,3.23
2023-03-24T13:42:59.289Z,2.73
2023-03-24T13:45:43.338Z,2.67
2023-03-24T13:51:00.701Z,2.33
2023-03-24T13:53:41.527Z,2.87
2023-03-24T13:56:13.034Z,2.50
2023-03-24T13:59:05.450Z,2.60
2023-03-24T14:01:40.271Z,2.60
2023-03-24T14:04:24.923Z,2.73
2023-03-24T14:06:55.768Z,2.57
2023-03-24T14:09:27.209Z,2.20
2023-03-24T14:12:32.805Z,2.23
2023-03-24T14:15:21.801Z,2.40
2023-03-24T14:17:56.057Z,2.50
2023-03-24T14:20:36.495Z,2.27
2023-03-24T14:23:23.885Z,2.50
2023-03-24T14:25:56.248Z,2.27
2023-03-24T14:28:32.363Z,2.30
2023-03-24T14:31:18.158Z,2.70
2023-03-24T14:34:02.047Z,2.53
2023-03-24T14:36:34.781Z,2.37
2023-03-24T14:39:26.936Z,2.47
2023-03-24T14:42:11.720Z,3.10
2023-03-24T14:44:56.024Z,2.80
2023-03-24T14:47:35.957Z,2.53
2023-03-24T14:50:18.992Z,2.13
2023-03-24T14:52:53.511Z,2.03
2023-03-24T14:55:22.827Z,2.47
2023-03-24T14:57:56.023Z,2.63
2023-03-24T15:00:35.794Z,2.13
2023-03-24T15:03:18.697Z,2.50
2023-03-24T15:05:47.935Z,2.47
2023-03-24T15:08:22.805Z,3.30
2023-03-24T15:11:03.578Z,1.90
2023-03-24T15:13:38.929Z,2.30
2023-03-24T15:16:21.130Z,2.43
2023-03-24T15:19:01.371Z,3.07
2023-03-24T15:21:34.796Z,2.50
2023-03-24T15:24:25.810Z,2.40
2023-03-24T15:27:08.768Z,3.20
2023-03-24T15:29:40.942Z,2.60
2023-03-24T15:32:18.212Z,3.30
2023-03-24T15:34:53.842Z,2.47
2023-03-24T15:37:25.774Z,3.20
2023-03-24T15:40:05.169Z,2.93
2023-03-24T15:42:41.662Z,3.00
2023-03-24T15:45:20.214Z,2.60
2023-03-24T15:47:53.435Z,3.23
2023-03-24T15:50:35.225Z,3.80
2023-03-24T15:53:21.677Z,4.43
2023-03-24T15:56:04.208Z,4.77
2023-03-24T15:58:47.485Z,4.97
2023-03-24T16:01:27.946Z,4.20
2023-03-24T16:04:02.285Z,4.10
2023-03-24T16:06:35.490Z,3.25
2023-03-24T16:09:10.212Z,3.80
2023-03-24T16:11:40.993Z,3.50
2023-03-24T16:14:22.333Z,3.27
2023-03-24T16:16:55.807Z,2.77
2023-03-24T16:21:54.388Z,2.83
2023-03-24T16:24:23.784Z,3.47
2023-03-24T16:26:52.864Z,3.00
2023-03-24T16:29:24.420Z,4.20
2023-03-24T16:31:56.325Z,3.57
2023-03-24T16:34:28.821Z,4.00
2023-03-24T16:37:05.150Z,3.93
2023-03-24T16:39:34.083Z,3.93
2023-03-24T16:42:06.585Z,4.30
2023-03-24T16:44:36.120Z,4.20
2023-03-24T16:47:11.501Z,3.97
2023-03-24T16:49:40.461Z,5.83
2023-03-24T16:52:12.985Z,5.13
2023-03-24T16:54:41.959Z,5.80
2023-03-24T16:57:10.866Z,6.20
2023-03-24T16:59:40.430Z,5.10
2023-03-24T17:02:10.755Z,4.23
2023-03-24T17:04:40.765Z,4.57
2023-03-24T17:07:10.055Z,4.90
2023-03-24T17:09:39.368Z,5.40
2023-03-24T17:12:10.169Z,5.93
2023-03-24T17:14:39.351Z,6.57
2023-03-24T17:17:11.604Z,7.65
2023-03-24T17:19:42.466Z,6.60
2023-03-24T17:22:17.545Z,7.87
2023-03-24T17:24:47.819Z,9.00
2023-03-24T17:27:20.718Z,8.40
2023-03-24T17:29:49.938Z,8.43
2023-03-24T17:32:28.926Z,7.47
2023-03-24T17:34:59.133Z,7.03
2023-03-24T17:37:29.257Z,7.30
2023-03-24T17:39:58.470Z,7.40
2023-03-24T17:42:27.860Z,7.70
2023-03-24T17:44:57.193Z,6.97
2023-03-24T17:47:26.307Z,7.60
2023-03-24T17:49:55.883Z,7.17
2023-03-24T17:52:25.192Z,8.10
2023-03-24T17:54:54.142Z,8.80
2023-03-24T17:57:23.149Z,8.23
2023-03-24T17:59:53.177Z,7.53
2023-03-24T18:02:22.595Z,6.95
2023-03-24T18:04:53.743Z,7.25
2023-03-24T18:07:22.961Z,6.60
2023-03-24T18:09:52.131Z,7.00
2023-03-24T18:12:21.854Z,7.17
2023-03-24T18:14:51.208Z,6.30
2023-03-24T18:17:20.261Z,6.97
2023-03-24T18:19:50.576Z,6.20
2023-03-24T18:22:21.226Z,6.87
2023-03-24T18:24:51.544Z,6.87
2023-03-24T18:27:20.504Z,9.53
2023-03-24T18:29:49.855Z,11.03
2023-03-24T18:32:21.596Z,8.77
2023-03-24T18:34:50.810Z,8.03
2023-03-24T18:37:20.698Z,6.33
2023-03-24T18:39:50.004Z,6.25
2023-03-24T18:42:19.330Z,6.13
2023-03-24T18:44:49.418Z,5.83
2023-03-24T18:47:22.084Z,5.80
2023-03-24T18:49:51.895Z,5.80
2023-03-24T18:52:20.927Z,5.80
2023-03-24T18:54:49.903Z,6.00
2023-03-24T18:57:19.760Z,5.50
2023-03-24T18:59:49.129Z,5.73
2023-03-24T19:02:19.222Z,5.50
2023-03-24T19:04:49.142Z,5.00
2023-03-24T19:07:24.241Z,5.40
2023-03-24T19:09:54.835Z,5.90
2023-03-24T19:12:23.863Z,6.17
2023-03-24T19:14:55.564Z,5.87
2023-03-24T19:17:25.815Z,5.03
2023-03-24T19:19:57.485Z,6.30
2023-03-24T19:22:26.761Z,5.57
2023-03-24T19:24:56.102Z,7.03
2023-03-24T19:27:26.708Z,7.03
2023-03-24T19:29:56.523Z,6.97
2023-03-24T19:32:25.586Z,7.00
2023-03-24T19:34:54.656Z,6.27
2023-03-24T19:37:24.091Z,6.50
2023-03-24T19:39:53.278Z,6.60
2023-03-24T19:42:24.034Z,6.03
2023-03-24T19:44:52.995Z,7.80
2023-03-24T19:47:22.641Z,8.03
2023-03-24T19:49:56.362Z,7.87
2023-03-24T19:54:55.520Z,7.00
2023-03-24T19:57:29.761Z,7.97
2023-03-24T19:59:58.977Z,8.10
2023-03-24T20:02:28.958Z,8.30
2023-03-24T20:04:59.334Z,8.63
2023-03-24T20:07:29.646Z,8.87
2023-03-24T20:09:59.420Z,8.63
2023-03-24T20:12:29.178Z,9.33
2023-03-24T20:14:58.915Z,9.73
2023-03-24T20:17:29.162Z,10.07
2023-03-24T20:19:59.703Z,10.40
2023-03-24T20:22:29.164Z,9.17
2023-03-24T20:24:58.876Z,9.50
2023-03-24T20:27:30.496Z,9.53
2023-03-24T20:30:00.715Z,9.10
2023-03-24T20:32:29.937Z,10.23
2023-03-24T20:34:59.864Z,9.27
2023-03-24T20:37:30.574Z,8.53
2023-03-24T20:39:59.763Z,9.53
2023-03-24T20:42:29.607Z,9.47
2023-03-24T20:44:59.958Z,9.60
2023-03-24T20:47:28.964Z,9.33
2023-03-24T20:49:57.933Z,9.20
2023-03-24T20:52:29.292Z,9.10
2023-03-24T20:55:00.541Z,10.30
2023-03-24T20:57:30.817Z,10.47
2023-03-24T21:00:00.063Z,10.10
2023-03-24T21:02:31.258Z,10.43
2023-03-24T21:05:00.440Z,10.00
2023-03-24T21:07:31.638Z,10.97
2023-03-24T21:10:01.870Z,10.00
2023-03-24T21:12:33.368Z,10.53
2023-03-24T21:15:04.999Z,10.20
2023-03-24T21:17:35.196Z,9.33
2023-03-24T21:20:11.109Z,10.10
2023-03-24T21:22:53.643Z,9.35
2023-03-24T21:25:26.415Z,8.00
2023-03-24T21:27:56.214Z,9.23
2023-03-24T21:30:27.275Z,8.63
2023-03-24T21:32:59.085Z,11.47
2023-03-24T21:35:28.564Z,12.60
2023-03-24T21:37:57.653Z,11.30
2023-03-24T21:40:27.114Z,9.87
2023-03-24T21:43:06.965Z,8.10
2023-03-24T21:45:36.921Z,9.13
2023-03-24T21:48:13.433Z,7.00
2023-03-24T21:50:45.235Z,6.20
2023-03-24T21:53:20.765Z,6.30
2023-03-24T21:55:52.183Z,5.83
2023-03-24T21:58:22.282Z,5.70
2023-03-24T22:00:51.806Z,5.40
2023-03-24T22:03:25.253Z,6.25
2023-03-24T22:05:56.705Z,6.37
2023-03-24T22:08:29.880Z,6.17
2023-03-24T22:11:03.826Z,5.97
2023-03-24T22:13:33.388Z,6.45
2023-03-24T22:16:05.000Z,6.63
2023-03-24T22:18:40.462Z,7.10
2023-03-24T22:21:12.890Z,7.27
2023-03-24T22:23:43.110Z,7.00
2023-03-24T22:26:14.946Z,7.03
2023-03-24T22:28:45.133Z,7.50
2023-03-24T22:31:16.246Z,6.07
2023-03-24T22:33:47.523Z,5.97
2023-03-24T22:36:18.121Z,6.23
2023-03-24T22:38:47.062Z,5.50
2023-03-24T22:41:17.561Z,5.50
2023-03-24T22:43:46.603Z,6.10
2023-03-24T22:46:19.708Z,5.67
2023-03-24T22:48:48.628Z,5.50
2023-03-24T22:51:18.899Z,5.70
2023-03-24T22:53:48.489Z,5.50
2023-03-24T22:56:19.144Z,5.40
2023-03-24T22:58:48.346Z,4.97
2023-03-24T23:01:20.195Z,4.55
2023-03-24T23:03:49.104Z,4.90
2023-03-24T23:06:21.003Z,5.37
2023-03-24T23:08:49.875Z,5.23
2023-03-24T23:11:21.939Z,4.37
2023-03-24T23:13:51.720Z,5.03
2023-03-24T23:16:21.503Z,4.83
2023-03-24T23:18:51.155Z,4.50
2023-03-24T23:21:20.984Z,5.20
2023-03-24T23:23:50.726Z,5.10
2023-03-24T23:26:25.461Z,5.60
2023-03-24T23:28:55.640Z,6.07
2023-03-24T23:31:29.985Z,6.63
2023-03-24T23:33:59.694Z,6.00
2023-03-24T23:36:29.236Z,5.90
2023-03-24T23:38:58.165Z,5.10
2023-03-24T23:41:28.037Z,4.83
2023-03-24T23:43:56.835Z,4.77
2023-03-24T23:46:27.856Z,4.77
2023-03-24T23:48:59.352Z,4.87
2023-03-24T23:51:29.688Z,5.27
2023-03-24T23:53:58.489Z,5.30
2023-03-24T23:56:29.945Z,4.97
2023-03-24T23:58:58.829Z,6.10
